Time;durP1;ratioP1;P1;durP2;ratioP2;P2;SDS_P1;SDS_P2;PMS_P1;PMS_P2;Temp;Humidity;BMP_temperature;BMP_pressure;BME280_temperature;BME280_humidity;BME280_pressure;Samples;Min_cycle;Max_cycle;Signal;HPM_P1;HPM_P2
2021/06/11 00:00:14;;;;;;;19.32;10.38;;;;;;;16.75;78.96;98943.27;1702367;83;20984;-76
2021/06/11 00:02:42;;;;;;;13.80;9.85;;;;;;;16.67;79.16;98948.11;1668439;86;21582;-77
2021/06/11 00:05:09;;;;;;;20.72;10.58;;;;;;;16.72;79.04;98944.95;1670759;85;21024;-77
2021/06/11 00:07:36;;;;;;;13.05;9.10;;;;;;;16.73;79.02;98946.63;1709791;83;20993;-77
2021/06/11 00:10:05;;;;;;;11.05;9.08;;;;;;;16.65;79.23;98943.45;1685768;84;20990;-77
2021/06/11 00:12:33;;;;;;;12.15;9.80;;;;;;;16.62;79.31;98944.29;1664282;85;21044;-75
2021/06/11 00:14:59;;;;;;;11.33;9.33;;;;;;;16.66;79.13;98948.28;1705184;83;21023;-76
2021/06/11 00:17:25;;;;;;;12.75;9.93;;;;;;;16.64;79.13;98948.45;1678717;85;21027;-76
2021/06/11 00:19:51;;;;;;;12.98;8.85;;;;;;;16.54;79.39;98953.95;1698152;83;21039;-77
2021/06/11 00:22:18;;;;;;;13.25;9.53;;;;;;;16.50;79.55;98951.28;1678816;85;20994;-76
2021/06/11 00:24:49;;;;;;;12.93;9.33;;;;;;;16.59;79.37;98960.65;1697482;83;21033;-75
2021/06/11 00:27:17;;;;;;;12.60;10.13;;;;;;;16.61;79.34;98961.30;1692538;83;21056;-76
2021/06/11 00:29:44;;;;;;;13.13;9.38;;;;;;;16.51;79.53;98954.81;1693710;84;21012;-76
2021/06/11 00:32:10;;;;;;;13.80;10.10;;;;;;;16.51;79.61;98952.14;1673280;85;21022;-77
2021/06/11 00:34:36;;;;;;;15.65;10.25;;;;;;;16.61;79.46;98963.97;1676532;85;21701;-77
2021/06/11 00:37:04;;;;;;;13.75;10.40;;;;;;;16.63;79.52;98960.64;1687090;84;21573;-77
2021/06/11 00:39:30;;;;;;;13.43;10.15;;;;;;;16.56;79.78;98960.48;1669922;85;21009;-77
2021/06/11 00:42:00;;;;;;;11.60;9.05;;;;;;;16.62;79.73;98960.30;1689925;84;21014;-77
2021/06/11 00:44:28;;;;;;;12.90;9.43;;;;;;;16.68;79.63;98959.64;1685167;83;21407;-76
2021/06/11 00:46:54;;;;;;;11.93;9.23;;;;;;;16.63;79.76;98963.31;1699106;83;21532;-77
2021/06/11 00:49:21;;;;;;;9.70;7.65;;;;;;;16.59;79.96;98957.47;1707852;84;21027;-77
2021/06/11 00:51:48;;;;;;;12.23;9.00;;;;;;;16.69;79.73;98955.98;1670759;85;21108;-77
2021/06/11 00:54:14;;;;;;;13.08;8.25;;;;;;;16.73;79.58;98959.98;1691780;84;21621;-77
2021/06/11 00:56:42;;;;;;;11.03;8.40;;;;;;;16.66;79.70;98957.14;1689038;83;21565;-77
2021/06/11 00:59:08;;;;;;;12.23;8.58;;;;;;;16.64;79.70;98958.31;1680304;83;21007;-77
2021/06/11 01:01:39;;;;;;;10.70;8.55;;;;;;;16.67;79.54;98963.30;1673517;84;21008;-77
2021/06/11 01:04:07;;;;;;;11.08;8.40;;;;;;;16.60;79.65;98964.96;1660201;85;21029;-77
2021/06/11 01:06:33;;;;;;;9.10;7.78;;;;;;;16.48;79.94;98962.64;1667811;86;21097;-77
2021/06/11 01:09:01;;;;;;;10.13;8.08;;;;;;;16.50;79.91;98967.81;1697979;83;21464;-76
2021/06/11 01:11:27;;;;;;;10.28;8.70;;;;;;;16.55;79.81;98963.63;1669648;85;21531;-77
2021/06/11 01:13:54;;;;;;;11.73;8.30;;;;;;;16.53;79.93;98961.65;1678102;85;21064;-77
2021/06/11 01:16:21;;;;;;;10.82;8.20;;;;;;;16.48;80.02;98959.98;1645958;85;21002;-77
2021/06/11 01:18:49;;;;;;;14.85;8.88;;;;;;;16.56;79.78;98959.15;1678664;84;20979;-77
2021/06/11 01:21:18;;;;;;;8.78;7.72;;;;;;;16.59;79.70;98964.66;1677722;84;21021;-76
2021/06/11 01:24:11;;;;;;;9.30;7.47;;;;;;;16.53;79.82;98964.31;1713497;83;21027;-76
2021/06/11 01:26:37;;;;;;;10.38;8.25;;;;;;;16.49;79.89;98962.95;1704537;84;21049;-76
2021/06/11 01:29:18;;;;;;;11.35;7.95;;;;;;;16.57;79.67;98962.13;1705333;83;21564;-77
2021/06/11 01:31:49;;;;;;;10.45;7.92;;;;;;;16.53;79.72;98964.31;1694286;83;21062;-77
2021/06/11 01:34:26;;;;;;;8.80;7.35;;;;;;;16.44;79.89;98965.28;1692767;83;21114;-77
2021/06/11 01:36:57;;;;;;;9.63;7.80;;;;;;;16.51;79.77;98966.30;1682009;84;21624;-77
2021/06/11 01:39:24;;;;;;;12.23;7.55;;;;;;;16.53;79.72;98968.32;1690073;84;21004;-77
2021/06/11 01:41:52;;;;;;;11.03;7.67;;;;;;;16.45;79.90;98965.63;1707460;83;21007;-77
2021/06/11 01:44:20;;;;;;;12.03;7.80;;;;;;;16.42;79.98;98965.12;1668915;84;21024;-77
2021/06/11 01:46:48;;;;;;;10.20;8.05;;;;;;;16.49;79.84;98969.63;1655572;85;21006;-77
2021/06/11 01:49:15;;;;;;;9.35;7.30;;;;;;;16.44;79.91;98966.63;1663462;85;21668;-77
2021/06/11 01:51:43;;;;;;;9.48;6.83;;;;;;;16.36;80.13;98972.78;1695920;84;21530;-77
2021/06/11 01:54:11;;;;;;;9.18;7.08;;;;;;;16.40;80.07;98967.95;1690300;83;21063;-77
2021/06/11 01:56:37;;;;;;;8.30;6.83;;;;;;;16.46;79.89;98965.97;1705129;83;21497;-77
2021/06/11 01:59:04;;;;;;;9.28;7.80;;;;;;;16.45;79.97;98966.96;1699403;84;21557;-77
2021/06/11 02:01:32;;;;;;;8.10;6.80;;;;;;;16.42;79.98;98970.45;1669604;84;20961;-77
2021/06/11 02:04:02;;;;;;;7.55;6.85;;;;;;;16.50;79.75;98972.64;1700782;84;21035;-78
2021/06/11 02:06:28;;;;;;;8.95;7.30;;;;;;;16.53;79.67;98969.66;1716926;82;20961;-78
2021/06/11 02:08:55;;;;;;;9.40;6.90;;;;;;;16.42;79.86;98975.31;1710412;82;21647;-78
2021/06/11 02:11:24;;;;;;;7.97;7.00;;;;;;;16.44;79.90;98977.81;1711503;82;21045;-77
2021/06/11 02:13:52;;;;;;;8.03;7.08;;;;;;;16.55;79.63;98970.30;1690668;83;21100;-77
2021/06/11 02:16:24;;;;;;;9.03;7.28;;;;;;;16.52;79.64;98978.66;1753328;82;21071;-77
2021/06/11 02:18:50;;;;;;;10.25;7.33;;;;;;;16.46;79.80;98976.64;1732517;82;21029;-77
2021/06/11 02:21:18;;;;;;;8.75;7.00;;;;;;;16.53;79.66;98984.33;1685114;83;21000;-77
2021/06/11 02:23:45;;;;;;;8.65;7.50;;;;;;;16.60;79.57;98978.31;1729533;82;21532;-77
2021/06/11 02:26:13;;;;;;;10.65;7.17;;;;;;;16.56;79.66;98985.84;1733949;82;21005;-77
2021/06/11 02:28:40;;;;;;;8.43;7.10;;;;;;;16.55;79.68;98987.66;1664711;83;21532;-77
2021/06/11 02:31:06;;;;;;;8.18;7.03;;;;;;;16.62;79.52;98984.33;1686508;84;21512;-77
2021/06/11 02:33:33;;;;;;;9.23;7.62;;;;;;;16.59;79.52;98980.16;1694904;83;21599;-77
2021/06/11 02:36:01;;;;;;;9.45;7.37;;;;;;;16.53;79.74;98980.81;1681176;84;21054;-77
2021/06/11 02:38:28;;;;;;;8.53;7.62;;;;;;;16.55;79.67;98988.98;1703662;82;21017;-77
2021/06/11 02:40:58;;;;;;;11.43;8.13;;;;;;;16.65;79.54;98985.31;1711754;82;21043;-77
2021/06/11 02:43:26;;;;;;;12.30;7.80;;;;;;;16.63;79.60;98987.34;1717082;82;21501;-77
2021/06/11 02:46:08;;;;;;;10.03;7.85;;;;;;;16.59;79.69;98984.67;1697063;84;21048;-77
2021/06/11 02:48:59;;;;;;;9.05;7.70;;;;;;;16.64;79.58;98979.67;1676598;84;21057;-77
2021/06/11 02:51:39;;;;;;;11.70;7.75;;;;;;;16.67;79.43;98982.00;1655527;85;21704;-77
2021/06/11 02:54:13;;;;;;;10.95;9.23;;;;;;;16.62;79.71;98992.34;1724646;81;21699;-77
2021/06/11 02:56:46;;;;;;;13.03;9.35;;;;;;;16.64;79.73;98996.51;1723733;82;20997;-78
2021/06/11 02:59:18;;;;;;;14.98;10.93;;;;;;;16.77;79.48;98998.69;1724840;82;21572;-78
2021/06/11 03:01:50;;;;;;;15.23;11.65;;;;;;;16.76;79.55;99001.02;1729597;82;20970;-77
2021/06/11 03:04:18;;;;;;;15.13;10.98;;;;;;;16.70;79.64;99001.67;1686920;85;21076;-77
2021/06/11 03:06:48;;;;;;;12.88;9.95;;;;;;;16.70;79.59;98993.18;1679315;84;21027;-77
2021/06/11 03:09:20;;;;;;;16.87;10.43;;;;;;;16.78;79.34;99001.69;1687191;84;21001;-77
2021/06/11 03:12:32;;;;;;;10.15;8.50;;;;;;;16.82;79.33;99007.54;1814378;78;22847;-77
2021/06/11 03:14:59;;;;;;;9.08;8.18;;;;;;;16.70;79.46;98998.52;1771637;80;20965;-77
2021/06/11 03:17:31;;;;;;;11.85;8.93;;;;;;;16.75;79.48;98999.85;1763196;80;21039;-77
2021/06/11 03:20:01;;;;;;;11.08;8.78;;;;;;;16.79;79.34;99003.37;1767891;80;21016;-77
2021/06/11 03:22:38;;;;;;;12.80;9.25;;;;;;;16.73;79.44;99000.02;1755139;80;21027;-77
2021/06/11 03:25:16;;;;;;;9.88;8.00;;;;;;;16.70;79.46;99005.67;1728211;83;21583;-77
2021/06/11 03:27:47;;;;;;;9.68;8.45;;;;;;;16.77;79.37;99002.69;1746180;80;20973;-76
2021/06/11 03:30:15;;;;;;;13.65;9.23;;;;;;;16.81;79.27;99001.34;1765908;80;20998;-77
2021/06/11 03:32:47;;;;;;;10.43;8.45;;;;;;;16.76;79.34;99008.20;1769191;80;21879;-77
2021/06/11 03:35:27;;;;;;;10.68;8.38;;;;;;;16.71;79.42;99004.68;1727883;82;21060;-77
2021/06/11 03:37:54;;;;;;;11.15;8.83;;;;;;;16.79;79.27;99004.70;1752192;82;21480;-77
2021/06/11 03:40:31;;;;;;;10.43;8.30;;;;;;;16.80;79.37;98997.03;1761307;80;21008;-77
2021/06/11 03:42:57;;;;;;;11.88;7.67;;;;;;;16.81;79.28;99004.02;1726543;82;22076;-77
2021/06/11 03:45:24;;;;;;;9.40;8.25;;;;;;;16.91;79.05;99000.40;1752286;80;21044;-77
2021/06/11 03:47:50;;;;;;;9.05;8.15;;;;;;;16.93;78.99;99002.38;1752936;80;21013;-77
2021/06/11 03:50:20;;;;;;;9.73;7.58;;;;;;;16.87;79.07;99011.37;1732115;82;21520;-77
2021/06/11 03:52:48;;;;;;;11.18;7.72;;;;;;;16.88;79.07;99002.36;1783871;80;21119;-77
2021/06/11 03:55:27;;;;;;;10.18;7.90;;;;;;;16.97;78.81;99007.72;1724463;82;20957;-77
2021/06/11 03:58:05;;;;;;;9.08;7.80;;;;;;;16.93;78.82;99010.39;1768856;80;21005;-77
2021/06/11 04:00:32;;;;;;;8.58;7.25;;;;;;;16.86;78.93;99004.86;1754117;80;21555;-76
2021/06/11 04:02:59;;;;;;;8.80;7.90;;;;;;;16.95;78.85;99004.40;1745030;80;21587;-77
2021/06/11 04:05:25;;;;;;;9.38;8.45;;;;;;;17.01;78.73;99011.75;1756402;82;21516;-77
2021/06/11 04:07:54;;;;;;;11.22;7.87;;;;;;;16.97;78.84;99011.72;1746828;80;21001;-77
2021/06/11 04:10:53;;;;;;;11.57;7.50;;;;;;;16.98;78.81;99023.59;1728740;81;21326;-77
2021/06/11 04:13:53;;;;;;;9.88;7.85;;;;;;;17.06;78.50;99016.08;1731058;80;20981;-77
2021/06/11 04:16:26;;;;;;;10.15;7.70;;;;;;;17.05;78.61;99019.75;1744153;81;21039;-77
2021/06/11 04:18:55;;;;;;;9.53;7.30;;;;;;;17.03;78.66;99017.73;1740428;80;21027;-77
2021/06/11 04:21:22;;;;;;;10.25;8.00;;;;;;;17.12;78.42;99020.76;1753845;81;20984;-77
2021/06/11 04:23:52;;;;;;;12.07;7.62;;;;;;;17.09;78.36;99025.59;1752638;81;20964;-78
2021/06/11 04:26:21;;;;;;;8.25;7.20;;;;;;;17.04;78.45;99024.75;1751730;80;21012;-76
2021/06/11 04:28:47;;;;;;;7.83;7.00;;;;;;;17.13;78.27;99022.40;1760661;81;21059;-76
2021/06/11 04:31:14;;;;;;;9.60;7.90;;;;;;;17.15;78.32;99022.26;1760899;80;21056;-76
2021/06/11 04:33:40;;;;;;;9.48;6.75;;;;;;;17.12;78.28;99027.44;1741093;81;21056;-76
2021/06/11 04:36:09;;;;;;;11.00;7.47;;;;;;;17.19;78.08;99033.76;1747882;80;21012;-76
2021/06/11 04:38:54;;;;;;;8.25;7.28;;;;;;;17.22;78.02;99027.75;1743411;81;21024;-76
2021/06/11 04:41:23;;;;;;;11.83;7.45;;;;;;;17.18;78.18;99029.41;1740314;80;21595;-77
2021/06/11 04:43:50;;;;;;;9.28;7.42;;;;;;;17.22;78.21;99029.09;1747273;80;20992;-77
2021/06/11 04:46:18;;;;;;;8.53;7.62;;;;;;;17.37;77.98;99032.74;1735678;81;21000;-76
2021/06/11 04:48:46;;;;;;;8.63;7.20;;;;;;;17.38;77.91;99029.08;1744923;80;20996;-75
2021/06/11 04:51:13;;;;;;;12.95;9.45;;;;;;;17.35;77.80;99032.06;1754856;81;21040;-76
2021/06/11 04:53:42;;;;;;;13.53;11.93;;;;;;;17.46;77.58;99032.23;1753890;80;21589;-76
2021/06/11 04:56:09;;;;;;;12.90;9.80;;;;;;;17.48;77.26;99031.05;1731606;81;21059;-78
2021/06/11 04:58:37;;;;;;;9.95;8.43;;;;;;;17.43;77.39;99029.39;1741191;80;21030;-77
2021/06/11 05:01:07;;;;;;;9.23;7.45;;;;;;;17.50;77.30;99033.55;1754400;81;20976;-77
2021/06/11 05:03:33;;;;;;;9.90;8.03;;;;;;;17.64;77.13;99040.04;1747032;81;21132;-77
2021/06/11 05:06:03;;;;;;;12.35;9.68;;;;;;;17.69;77.14;99032.34;1740931;80;21028;-78
2021/06/11 05:08:30;;;;;;;12.47;9.50;;;;;;;17.74;76.79;99033.99;1730472;83;21087;-77
2021/06/11 05:10:57;;;;;;;11.80;8.18;;;;;;;17.80;76.30;99025.28;1686350;83;21202;-77
2021/06/11 05:13:24;;;;;;;11.68;8.93;;;;;;;17.92;76.07;99021.72;1751722;82;21476;-77
2021/06/11 05:15:50;;;;;;;14.40;8.75;;;;;;;17.96;76.09;99023.59;1755847;80;21050;-77
2021/06/11 05:18:18;;;;;;;8.98;7.03;;;;;;;18.06;76.07;99030.08;1754334;82;21078;-77
2021/06/11 05:20:45;;;;;;;12.10;8.65;;;;;;;18.24;75.58;99029.81;1754157;80;20973;-77
2021/06/11 05:23:11;;;;;;;12.82;9.65;;;;;;;18.35;75.19;99026.75;1756599;80;20985;-78
2021/06/11 05:25:37;;;;;;;9.30;7.22;;;;;;;18.38;75.20;99033.08;1724760;83;21040;-76
2021/06/11 05:28:06;;;;;;;11.53;7.80;;;;;;;18.45;74.94;99027.84;1753615;80;21020;-77
2021/06/11 05:30:33;;;;;;;9.83;7.65;;;;;;;18.57;74.18;99021.57;1753656;82;21060;-76
2021/06/11 05:33:02;;;;;;;10.65;8.20;;;;;;;18.53;73.91;99027.81;1771427;80;21116;-76
2021/06/11 05:35:27;;;;;;;10.10;6.95;;;;;;;18.50;74.11;99030.82;1734791;80;21054;-77
2021/06/11 05:37:56;;;;;;;8.33;7.35;;;;;;;18.58;74.16;99031.27;1757273;80;20992;-76
2021/06/11 05:40:22;;;;;;;9.53;7.70;;;;;;;18.64;73.99;99039.45;1744280;82;21509;-77
2021/06/11 05:42:52;;;;;;;9.05;6.45;;;;;;;18.60;73.89;99032.77;1737484;82;20973;-76
2021/06/11 05:45:18;;;;;;;9.23;8.33;;;;;;;18.60;73.82;99037.30;1765709;80;20953;-76
2021/06/11 05:47:47;;;;;;;9.25;6.78;;;;;;;18.63;73.59;99043.63;1723792;83;21092;-77
2021/06/11 05:50:13;;;;;;;8.88;7.50;;;;;;;18.59;73.67;99039.13;1753929;80;21531;-77
2021/06/11 05:52:41;;;;;;;8.60;6.85;;;;;;;18.59;73.90;99040.46;1754377;82;21503;-77
2021/06/11 05:55:10;;;;;;;9.40;7.92;;;;;;;18.70;73.47;99039.75;1753299;80;21012;-76
2021/06/11 05:57:36;;;;;;;12.58;7.35;;;;;;;18.77;73.13;99040.20;1754218;81;21321;-77
2021/06/11 06:00:05;;;;;;;13.30;7.17;;;;;;;18.74;73.07;99041.88;1757873;80;21321;-77
2021/06/11 06:02:32;;;;;;;10.58;7.12;;;;;;;18.78;73.03;99043.70;1745377;80;20992;-77
2021/06/11 06:04:58;;;;;;;12.25;7.70;;;;;;;18.89;72.73;99047.80;1724236;82;21016;-78
2021/06/11 06:07:24;;;;;;;17.48;11.35;;;;;;;18.87;72.38;99046.64;1733322;80;20981;-78
2021/06/11 06:09:57;;;;;;;10.28;7.90;;;;;;;18.87;72.44;99052.52;1729528;82;21031;-77
2021/06/11 06:12:23;;;;;;;12.40;7.65;;;;;;;18.99;72.20;99051.13;1740990;80;21024;-78
2021/06/11 06:14:52;;;;;;;9.05;7.53;;;;;;;19.13;71.71;99055.69;1727730;82;21053;-78
2021/06/11 06:17:18;;;;;;;9.70;7.00;;;;;;;19.12;71.37;99047.31;1720962;82;20970;-78
2021/06/11 06:19:46;;;;;;;9.10;6.67;;;;;;;19.14;71.31;99052.00;1754159;80;21095;-77
2021/06/11 06:22:13;;;;;;;12.63;9.13;;;;;;;19.31;70.92;99057.22;1714487;84;20996;-78
2021/06/11 06:24:39;;;;;;;12.25;6.97;;;;;;;19.35;70.77;99051.81;1749320;80;21518;-78
2021/06/11 06:27:06;;;;;;;8.55;6.70;;;;;;;19.35;70.42;99049.13;1750081;82;20969;-78
2021/06/11 06:29:34;;;;;;;11.73;5.85;;;;;;;19.37;70.36;99052.45;1754486;80;21028;-79
2021/06/11 06:32:04;;;;;;;10.00;6.35;;;;;;;19.49;69.77;99055.53;1751161;82;21077;-74
2021/06/11 06:34:29;;;;;;;6.92;6.00;;;;;;;19.51;69.46;99054.83;1728921;80;21013;-73
2021/06/11 06:36:55;;;;;;;7.40;5.60;;;;;;;19.49;69.55;99052.34;1745803;82;21001;-73
2021/06/11 06:39:21;;;;;;;7.60;5.35;;;;;;;19.46;69.36;99058.56;1751854;82;21029;-73
2021/06/11 06:41:48;;;;;;;7.60;5.90;;;;;;;19.48;69.37;99052.00;1751245;80;20930;-73
2021/06/11 06:44:14;;;;;;;9.88;5.80;;;;;;;19.59;69.19;99057.93;1714708;84;21063;-76
2021/06/11 06:46:41;;;;;;;8.30;6.25;;;;;;;19.59;68.55;99057.93;1750082;80;20985;-77
2021/06/11 06:49:09;;;;;;;6.92;5.00;;;;;;;19.57;68.10;99052.76;1725538;83;21071;-76
2021/06/11 06:51:37;;;;;;;6.00;5.37;;;;;;;19.58;67.82;99056.29;1736094;80;21060;-76
2021/06/11 06:54:04;;;;;;;9.35;5.95;;;;;;;19.71;67.29;99061.02;1754230;82;21076;-76
2021/06/11 06:56:32;;;;;;;8.50;6.00;;;;;;;19.75;67.15;99060.44;1729926;82;20977;-75
2021/06/11 06:58:59;;;;;;;6.42;5.25;;;;;;;19.87;67.58;99061.36;1759395;80;21029;-74
2021/06/11 07:01:26;;;;;;;8.78;5.72;;;;;;;19.97;66.74;99051.17;1749564;80;21067;-75
2021/06/11 07:04:00;;;;;;;6.05;4.90;;;;;;;20.11;65.71;99052.19;1747778;80;21008;-74
2021/06/11 07:06:26;;;;;;;8.33;4.95;;;;;;;20.21;64.78;99057.27;1731338;82;21009;-75
2021/06/11 07:08:53;;;;;;;8.93;5.40;;;;;;;20.29;64.55;99059.84;1745862;80;21512;-75
2021/06/11 07:11:20;;;;;;;8.35;5.20;;;;;;;20.38;65.01;99053.85;1754902;80;20996;-75
2021/06/11 07:13:48;;;;;;;6.80;5.20;;;;;;;20.55;64.21;99053.11;1736438;81;21603;-75
2021/06/11 07:16:15;;;;;;;7.22;5.40;;;;;;;20.65;64.19;99051.47;1735552;81;21495;-75
2021/06/11 07:18:42;;;;;;;7.10;5.10;;;;;;;20.81;63.74;99049.06;1716674;82;21092;-75
2021/06/11 07:21:11;;;;;;;6.97;5.08;;;;;;;20.89;63.87;99047.60;1662476;84;21056;-74
2021/06/11 07:23:37;;;;;;;7.25;5.20;;;;;;;20.93;63.13;99043.00;1716507;82;21049;-74
2021/06/11 07:26:06;;;;;;;7.95;4.80;;;;;;;20.93;63.19;99050.22;1664850;84;21064;-75
2021/06/11 07:28:37;;;;;;;6.70;4.80;;;;;;;20.94;63.14;99050.02;1723885;82;21033;-75
2021/06/11 07:31:04;;;;;;;6.75;4.90;;;;;;;21.03;62.04;99050.72;1659666;84;20996;-76
2021/06/11 07:33:31;;;;;;;5.55;4.65;;;;;;;21.00;61.91;99053.81;1723441;82;20954;-76
2021/06/11 07:35:58;;;;;;;7.17;4.62;;;;;;;21.04;62.48;99051.05;1651765;84;21009;-75
2021/06/11 07:38:25;;;;;;;6.58;4.70;;;;;;;21.13;62.04;99049.06;1720351;83;21028;-74
2021/06/11 07:40:53;;;;;;;5.28;4.25;;;;;;;21.13;61.16;99057.66;1693713;84;21028;-74
2021/06/11 07:43:21;;;;;;;5.25;4.75;;;;;;;21.06;61.00;99059.77;1702353;83;21024;-74
2021/06/11 07:45:49;;;;;;;5.00;4.15;;;;;;;21.02;61.32;99054.43;1697098;84;21528;-74
2021/06/11 07:48:16;;;;;;;5.28;4.60;;;;;;;21.11;61.47;99055.98;1695276;83;21044;-74
2021/06/11 07:50:43;;;;;;;8.00;4.35;;;;;;;21.36;60.77;99053.39;1671823;84;21103;-75
2021/06/11 07:53:10;;;;;;;6.60;4.42;;;;;;;21.39;60.37;99051.11;1695524;84;21103;-75
2021/06/11 07:55:37;;;;;;;6.12;4.10;;;;;;;21.39;60.56;99063.22;1695864;83;21071;-77
2021/06/11 07:58:03;;;;;;;6.80;4.33;;;;;;;21.44;60.17;99058.11;1696817;84;21072;-76
2021/06/11 08:00:30;;;;;;;5.85;4.15;;;;;;;21.50;59.43;99059.17;1721379;83;21564;-77
2021/06/11 08:02:56;;;;;;;7.67;4.20;;;;;;;21.54;58.87;99056.41;1704215;83;21556;-76
2021/06/11 08:05:25;;;;;;;5.55;4.25;;;;;;;21.56;58.56;99058.92;1684116;83;21064;-77
2021/06/11 08:07:53;;;;;;;10.43;4.80;;;;;;;21.63;59.16;99056.30;1688822;83;21603;-77
2021/06/11 08:10:20;;;;;;;6.95;4.60;;;;;;;21.71;59.37;99062.33;1687269;83;21035;-75
2021/06/11 08:12:47;;;;;;;7.25;4.75;;;;;;;21.77;59.04;99063.42;1709729;83;21055;-75
2021/06/11 08:15:13;;;;;;;9.93;4.70;;;;;;;21.72;58.45;99061.31;1711059;83;21070;-76
2021/06/11 08:17:40;;;;;;;5.30;3.98;;;;;;;21.62;58.36;99066.21;1673495;83;21113;-76
2021/06/11 08:20:08;;;;;;;5.30;4.28;;;;;;;21.46;57.54;99064.64;1714731;83;21062;-76
2021/06/11 08:22:36;;;;;;;6.08;4.95;;;;;;;21.38;58.65;99058.89;1680083;83;21077;-75
2021/06/11 08:25:06;;;;;;;6.33;4.67;;;;;;;21.44;58.51;99058.61;1695368;83;21036;-74
2021/06/11 08:27:33;;;;;;;8.25;4.60;;;;;;;21.56;58.37;99066.99;1702574;83;21043;-75
2021/06/11 08:29:59;;;;;;;7.85;4.67;;;;;;;21.58;58.03;99071.15;1691493;83;21086;-74
2021/06/11 08:32:26;;;;;;;7.62;5.28;;;;;;;21.65;57.95;99067.19;1721139;82;21095;-75
2021/06/11 08:34:52;;;;;;;8.00;4.95;;;;;;;21.73;58.25;99067.55;1694503;84;21552;-85
2021/06/11 08:37:24;;;;;;;8.00;5.22;;;;;;;21.84;57.79;99074.22;1706026;82;21020;-82
2021/06/11 08:39:54;;;;;;;7.05;5.53;;;;;;;21.84;57.13;99072.88;1699364;83;21040;-81
2021/06/11 08:42:29;;;;;;;7.33;5.05;;;;;;;21.79;57.23;99069.94;1721411;82;21648;-82
2021/06/11 08:45:04;;;;;;;7.08;5.45;;;;;;;21.75;57.21;99069.00;1679760;84;21035;-84
2021/06/11 08:47:34;;;;;;;7.05;4.87;;;;;;;21.72;57.07;99070.73;1707708;82;21105;-81
2021/06/11 08:50:11;;;;;;;8.40;4.83;;;;;;;21.72;56.79;99068.03;1716750;78;21076;-80
2021/06/11 08:52:39;;;;;;;10.00;4.85;;;;;;;21.71;56.96;99067.71;1686818;79;21081;-77
2021/06/11 08:58:07;;;;;;;5.75;4.62;;;;;;;21.70;56.29;99073.30;1818097;79;23613;-79
2021/06/11 09:00:35;;;;;;;8.00;4.77;;;;;;;21.57;57.11;99063.28;1767274;80;21002;-79
2021/06/11 09:03:20;;;;;;;6.65;4.08;;;;;;;21.56;56.94;99063.80;1749995;80;20986;-78
2021/06/11 09:06:05;;;;;;;7.90;4.75;;;;;;;21.53;56.51;99066.02;1768130;80;20966;-77
2021/06/11 09:08:32;;;;;;;5.80;4.30;;;;;;;21.48;55.96;99071.98;1770024;80;21001;-79
2021/06/11 09:11:18;;;;;;;5.37;4.45;;;;;;;21.48;56.18;99067.94;1752485;81;20969;-78
2021/06/11 09:13:49;;;;;;;6.83;4.42;;;;;;;21.56;56.47;99060.27;1757549;80;21007;-78
2021/06/11 09:16:24;;;;;;;4.95;4.10;;;;;;;21.73;56.86;99057.59;1724681;81;21048;-79
2021/06/11 09:18:57;;;;;;;7.40;4.50;;;;;;;21.86;56.28;99064.09;1710085;84;21002;-79
2021/06/11 09:21:49;;;;;;;4.87;4.10;;;;;;;21.96;56.28;99059.67;1695942;83;21553;-77
2021/06/11 09:24:24;;;;;;;4.92;4.42;;;;;;;22.13;55.86;99058.32;1737557;82;21244;-78
2021/06/11 09:27:05;;;;;;;5.67;3.90;;;;;;;22.28;54.50;99048.77;1732316;81;21063;-75
2021/06/11 09:29:45;;;;;;;5.55;4.20;;;;;;;22.32;53.96;99049.20;1749903;81;21512;-76
2021/06/11 09:32:27;;;;;;;5.33;4.10;;;;;;;22.42;54.16;99046.45;1710069;82;21021;-77
2021/06/11 09:35:03;;;;;;;8.10;4.17;;;;;;;22.57;52.74;99051.69;1748073;81;21035;-78
2021/06/11 09:37:33;;;;;;;6.00;3.95;;;;;;;22.63;52.32;99039.25;1733171;81;21036;-78
2021/06/11 09:40:03;;;;;;;5.70;4.00;;;;;;;22.65;53.14;99034.50;1729433;81;20996;-78
2021/06/11 09:42:34;;;;;;;5.10;4.03;;;;;;;22.64;54.05;99036.88;1723043;83;21005;-80
2021/06/11 09:45:10;;;;;;;5.97;4.30;;;;;;;22.62;52.75;99030.84;1732586;82;21013;-78
2021/06/11 09:47:39;;;;;;;5.25;4.28;;;;;;;22.55;53.55;99035.41;1734437;81;21017;-79
2021/06/11 09:50:22;;;;;;;5.78;4.80;;;;;;;22.57;52.80;99031.48;1716014;81;21499;-77
2021/06/11 09:53:07;;;;;;;5.33;4.62;;;;;;;22.56;53.67;99034.38;1738874;81;20946;-77
2021/06/11 09:55:53;;;;;;;4.92;4.42;;;;;;;22.61;53.77;99033.25;1732848;82;21028;-76
2021/06/11 09:58:27;;;;;;;4.80;4.30;;;;;;;22.67;53.58;99033.76;1733399;82;21675;-76
2021/06/11 10:01:04;;;;;;;9.73;5.08;;;;;;;22.75;52.63;99032.23;1744034;81;21013;-76
2021/06/11 10:03:34;;;;;;;6.05;4.75;;;;;;;22.78;52.32;99027.48;1737177;82;21018;-76
2021/06/11 10:06:02;;;;;;;6.85;4.62;;;;;;;22.73;52.52;99028.90;1735166;81;21057;-76
2021/06/11 10:08:29;;;;;;;6.17;4.37;;;;;;;22.68;52.49;99030.03;1726965;82;20984;-77
2021/06/11 10:11:03;;;;;;;6.33;4.50;;;;;;;22.65;53.49;99031.80;1733528;82;21008;-77
2021/06/11 10:13:29;;;;;;;5.10;4.55;;;;;;;22.70;53.02;99032.02;1724997;82;22280;-77
2021/06/11 10:15:59;;;;;;;8.10;5.12;;;;;;;22.72;53.22;99046.63;1714252;82;21053;-77
2021/06/11 10:18:25;;;;;;;5.97;3.90;;;;;;;22.80;53.40;99027.59;1733556;81;21000;-78
2021/06/11 10:20:51;;;;;;;8.88;4.37;;;;;;;22.88;51.80;99030.06;1681339;84;21604;-79
2021/06/11 10:23:23;;;;;;;5.87;4.37;;;;;;;22.83;52.08;99035.25;1736835;82;21053;-79
2021/06/11 10:25:56;;;;;;;8.70;4.53;;;;;;;22.88;52.56;99023.33;1718488;81;21493;-80
2021/06/11 10:28:27;;;;;;;5.90;4.92;;;;;;;23.00;51.76;99020.84;1732066;82;21553;-78
2021/06/11 10:31:04;;;;;;;12.55;8.60;;;;;;;23.08;51.50;99022.00;1737545;81;21083;-79
2021/06/11 10:33:52;;;;;;;11.50;6.45;;;;;;;23.11;51.17;99021.25;1736763;82;21049;-77
2021/06/11 10:36:30;;;;;;;5.62;4.08;;;;;;;23.04;51.50;99019.91;1735486;82;20986;-77
2021/06/11 10:39:03;;;;;;;6.25;3.85;;;;;;;23.00;51.05;99014.09;1725767;81;21032;-77
2021/06/11 10:41:44;;;;;;;5.83;3.92;;;;;;;22.94;50.02;99025.70;1711093;81;21002;-78
2021/06/11 10:44:37;;;;;;;7.78;3.70;;;;;;;22.86;48.99;99028.62;1725403;81;21500;-79
2021/06/11 10:47:21;;;;;;;5.53;3.62;;;;;;;22.78;50.16;99027.48;1729367;82;21550;-81
2021/06/11 10:50:05;;;;;;;5.85;3.90;;;;;;;22.88;50.32;99026.56;1735109;81;21539;-78
2021/06/11 10:52:38;;;;;;;7.25;4.10;;;;;;;23.00;49.36;99016.80;1733685;82;21037;-78
2021/06/11 10:55:21;;;;;;;5.33;4.25;;;;;;;23.00;50.21;99015.98;1732138;81;21023;-79
2021/06/11 10:58:02;;;;;;;6.62;3.80;;;;;;;22.97;50.65;99009.63;1730604;81;21027;-78
2021/06/11 11:00:33;;;;;;;6.53;3.87;;;;;;;22.99;51.71;99008.92;1715457;82;20971;-78
2021/06/11 11:03:03;;;;;;;5.80;4.25;;;;;;;23.15;50.73;99011.77;1723660;82;21016;-77
2021/06/11 11:05:34;;;;;;;4.92;3.67;;;;;;;23.20;50.66;99009.27;1731097;81;21054;-77
2021/06/11 11:08:07;;;;;;;8.80;3.98;;;;;;;23.22;50.56;99005.33;1725696;81;21001;-77
2021/06/11 11:10:48;;;;;;;6.30;4.17;;;;;;;23.19;51.15;99008.95;1725979;81;21021;-78
2021/06/11 11:13:20;;;;;;;7.80;4.80;;;;;;;23.21;50.94;99008.21;1701887;82;21588;-78
2021/06/11 11:15:51;;;;;;;6.72;3.85;;;;;;;23.15;51.42;99011.23;1740414;81;21040;-77
2021/06/11 11:18:23;;;;;;;5.22;3.90;;;;;;;22.99;51.39;99007.07;1734662;82;21019;-78
2021/06/11 11:20:47;;;;;;;6.97;4.25;;;;;;;22.88;51.98;99010.38;1725465;81;21504;-77
2021/06/11 11:23:20;;;;;;;7.42;4.10;;;;;;;22.81;51.70;99010.36;1716349;82;21020;-77
2021/06/11 11:25:47;;;;;;;7.67;4.22;;;;;;;22.77;52.21;99005.59;1722067;82;21029;-76
2021/06/11 11:28:14;;;;;;;8.38;4.62;;;;;;;22.82;52.78;98997.72;1733008;81;21021;-77
2021/06/11 11:30:43;;;;;;;5.37;4.22;;;;;;;22.89;52.85;98993.15;1737289;81;21017;-77
2021/06/11 11:33:09;;;;;;;8.53;3.92;;;;;;;23.01;52.64;98990.68;1736373;82;21528;-77
2021/06/11 11:35:40;;;;;;;6.00;4.20;;;;;;;23.13;52.09;98989.53;1734501;81;21935;-76
2021/06/11 11:38:08;;;;;;;5.42;4.20;;;;;;;23.15;51.85;98991.55;1730224;82;21501;-76
2021/06/11 11:40:36;;;;;;;4.10;3.70;;;;;;;23.13;50.77;98989.53;1727887;81;21036;-78
2021/06/11 11:43:02;;;;;;;6.97;4.08;;;;;;;23.05;50.71;98990.04;1730522;81;21024;-78
2021/06/11 11:45:32;;;;;;;5.92;3.70;;;;;;;22.90;51.47;98986.23;1735154;81;21002;-77